sensor_id;sensor_type;location;lat;lon;timestamp;temperature;humidity
31133;DHT22;17779;50.942;4.026;2023-05-07T00:00:20;17.40;99.90
31133;DHT22;17779;50.942;4.026;2023-05-07T00:02:46;17.60;99.90
31133;DHT22;17779;50.942;4.026;2023-05-07T00:05:13;17.60;99.90
31133;DHT22;17779;50.942;4.026;2023-05-07T00:07:39;17.60;99.90
31133;DHT22;17779;50.942;4.026;2023-05-07T00:10:06;17.60;99.90
31133;DHT22;17779;50.942;4.026;2023-05-07T00:12:32;17.30;99.90
31133;DHT22;17779;50.942;4.026;2023-05-07T00:15:04;17.10;99.90
31133;DHT22;17779;50.942;4.026;2023-05-07T00:17:32;16.80;99.90
31133;DHT22;17779;50.942;4.026;2023-05-07T00:19:58;16.70;99.90
31133;DHT22;17779;50.942;4.026;2023-05-07T00:22:23;16.80;99.90
31133;DHT22;17779;50.942;4.026;2023-05-07T00:24:49;17.00;99.90
31133;DHT22;17779;50.942;4.026;2023-05-07T00:27:15;17.10;99.90
31133;DHT22;17779;50.942;4.026;2023-05-07T00:29:41;17.00;99.90
31133;DHT22;17779;50.942;4.026;2023-05-07T00:32:08;17.00;99.90
31133;DHT22;17779;50.942;4.026;2023-05-07T00:34:34;17.10;99.90
31133;DHT22;17779;50.942;4.026;2023-05-07T00:37:00;17.00;99.90
31133;DHT22;17779;50.942;4.026;2023-05-07T00:39:26;16.90;99.90
31133;DHT22;17779;50.942;4.026;2023-05-07T00:41:52;17.10;99.90
31133;DHT22;17779;50.942;4.026;2023-05-07T00:44:17;17.10;99.90
31133;DHT22;17779;50.942;4.026;2023-05-07T00:46:44;17.30;99.90
31133;DHT22;17779;50.942;4.026;2023-05-07T00:49:10;17.10;99.90
31133;DHT22;17779;50.942;4.026;2023-05-07T00:51:36;17.00;99.90
31133;DHT22;17779;50.942;4.026;2023-05-07T00:54:03;17.00;99.90
31133;DHT22;17779;50.942;4.026;2023-05-07T00:56:30;17.00;99.90
31133;DHT22;17779;50.942;4.026;2023-05-07T00:58:57;17.00;99.90
31133;DHT22;17779;50.942;4.026;2023-05-07T01:01:23;17.10;99.90
31133;DHT22;17779;50.942;4.026;2023-05-07T01:03:48;17.30;99.90
31133;DHT22;17779;50.942;4.026;2023-05-07T01:06:14;17.40;99.90
31133;DHT22;17779;50.942;4.026;2023-05-07T01:08:42;17.30;99.90
31133;DHT22;17779;50.942;4.026;2023-05-07T01:11:08;17.00;99.90
31133;DHT22;17779;50.942;4.026;2023-05-07T01:13:35;17.00;99.90
31133;DHT22;17779;50.942;4.026;2023-05-07T01:16:02;16.70;99.90
31133;DHT22;17779;50.942;4.026;2023-05-07T01:18:28;16.60;99.90
31133;DHT22;17779;50.942;4.026;2023-05-07T01:20:58;16.70;99.90
31133;DHT22;17779;50.942;4.026;2023-05-07T01:23:25;16.90;99.90
31133;DHT22;17779;50.942;4.026;2023-05-07T01:25:53;17.10;99.90
31133;DHT22;17779;50.942;4.026;2023-05-07T01:28:19;17.20;99.90
31133;DHT22;17779;50.942;4.026;2023-05-07T01:30:49;17.30;99.90
31133;DHT22;17779;50.942;4.026;2023-05-07T01:33:19;17.20;99.90
31133;DHT22;17779;50.942;4.026;2023-05-07T01:35:48;16.90;99.90
31133;DHT22;17779;50.942;4.026;2023-05-07T01:38:16;16.90;99.90
31133;DHT22;17779;50.942;4.026;2023-05-07T01:40:43;17.10;99.90
31133;DHT22;17779;50.942;4.026;2023-05-07T01:43:10;17.20;99.90
31133;DHT22;17779;50.942;4.026;2023-05-07T01:45:36;17.30;99.90
31133;DHT22;17779;50.942;4.026;2023-05-07T01:48:03;17.30;99.90
31133;DHT22;17779;50.942;4.026;2023-05-07T01:50:30;17.20;99.90
31133;DHT22;17779;50.942;4.026;2023-05-07T01:52:56;16.90;99.90
31133;DHT22;17779;50.942;4.026;2023-05-07T01:55:22;16.80;99.90
31133;DHT22;17779;50.942;4.026;2023-05-07T01:57:49;16.90;99.90
31133;DHT22;17779;50.942;4.026;2023-05-07T02:00:15;17.10;99.90
31133;DHT22;17779;50.942;4.026;2023-05-07T02:02:41;17.30;99.90
31133;DHT22;17779;50.942;4.026;2023-05-07T02:05:08;17.20;99.90
31133;DHT22;17779;50.942;4.026;2023-05-07T02:07:34;16.90;99.90
31133;DHT22;17779;50.942;4.026;2023-05-07T02:10:00;16.60;99.90
31133;DHT22;17779;50.942;4.026;2023-05-07T02:12:27;16.50;99.90
31133;DHT22;17779;50.942;4.026;2023-05-07T02:14:53;16.70;99.90
31133;DHT22;17779;50.942;4.026;2023-05-07T02:17:19;16.80;99.90
31133;DHT22;17779;50.942;4.026;2023-05-07T02:19:45;16.70;99.90
31133;DHT22;17779;50.942;4.026;2023-05-07T02:22:10;16.50;99.90
31133;DHT22;17779;50.942;4.026;2023-05-07T02:24:36;16.60;99.90
31133;DHT22;17779;50.942;4.026;2023-05-07T02:27:02;16.70;99.90
31133;DHT22;17779;50.942;4.026;2023-05-07T02:29:28;16.90;99.90
31133;DHT22;17779;50.942;4.026;2023-05-07T02:31:54;16.90;99.90
31133;DHT22;17779;50.942;4.026;2023-05-07T02:34:21;16.80;99.90
31133;DHT22;17779;50.942;4.026;2023-05-07T02:36:46;16.70;99.90
31133;DHT22;17779;50.942;4.026;2023-05-07T02:39:13;16.70;99.90
31133;DHT22;17779;50.942;4.026;2023-05-07T02:41:39;16.60;99.90
31133;DHT22;17779;50.942;4.026;2023-05-07T02:44:05;16.70;99.90
31133;DHT22;17779;50.942;4.026;2023-05-07T02:46:32;16.80;99.90
31133;DHT22;17779;50.942;4.026;2023-05-07T02:48:58;17.00;99.90
31133;DHT22;17779;50.942;4.026;2023-05-07T02:51:25;16.90;99.90
31133;DHT22;17779;50.942;4.026;2023-05-07T02:53:52;16.80;99.90
31133;DHT22;17779;50.942;4.026;2023-05-07T02:56:18;17.10;99.90
31133;DHT22;17779;50.942;4.026;2023-05-07T02:58:43;17.00;99.90
31133;DHT22;17779;50.942;4.026;2023-05-07T03:01:09;16.70;99.90
31133;DHT22;17779;50.942;4.026;2023-05-07T03:03:35;16.50;99.90
31133;DHT22;17779;50.942;4.026;2023-05-07T03:06:01;16.30;99.90
31133;DHT22;17779;50.942;4.026;2023-05-07T03:08:27;16.20;99.90
31133;DHT22;17779;50.942;4.026;2023-05-07T03:10:53;16.10;99.90
31133;DHT22;17779;50.942;4.026;2023-05-07T03:13:19;16.20;99.90
31133;DHT22;17779;50.942;4.026;2023-05-07T03:15:47;16.30;99.90
31133;DHT22;17779;50.942;4.026;2023-05-07T03:18:13;16.60;99.90
31133;DHT22;17779;50.942;4.026;2023-05-07T03:20:39;16.80;99.90
31133;DHT22;17779;50.942;4.026;2023-05-07T03:23:05;16.80;99.90
31133;DHT22;17779;50.942;4.026;2023-05-07T03:25:31;16.90;99.90
31133;DHT22;17779;50.942;4.026;2023-05-07T03:27:57;17.00;99.90
31133;DHT22;17779;50.942;4.026;2023-05-07T03:30:23;17.00;99.90
31133;DHT22;17779;50.942;4.026;2023-05-07T03:32:49;17.00;99.90
31133;DHT22;17779;50.942;4.026;2023-05-07T03:35:15;17.10;99.90
31133;DHT22;17779;50.942;4.026;2023-05-07T03:37:42;17.20;99.90
31133;DHT22;17779;50.942;4.026;2023-05-07T03:40:08;17.10;99.90
31133;DHT22;17779;50.942;4.026;2023-05-07T03:42:35;16.60;99.90
31133;DHT22;17779;50.942;4.026;2023-05-07T03:45:01;16.30;99.90
31133;DHT22;17779;50.942;4.026;2023-05-07T03:47:27;16.50;99.90
31133;DHT22;17779;50.942;4.026;2023-05-07T03:49:53;16.80;99.90
31133;DHT22;17779;50.942;4.026;2023-05-07T03:52:20;16.90;99.90
31133;DHT22;17779;50.942;4.026;2023-05-07T03:54:50;17.00;99.90
31133;DHT22;17779;50.942;4.026;2023-05-07T03:57:15;17.10;99.90
31133;DHT22;17779;50.942;4.026;2023-05-07T03:59:41;17.10;99.90
31133;DHT22;17779;50.942;4.026;2023-05-07T04:02:07;17.00;99.90
31133;DHT22;17779;50.942;4.026;2023-05-07T04:04:33;17.10;99.90
31133;DHT22;17779;50.942;4.026;2023-05-07T04:06:58;17.20;99.90
31133;DHT22;17779;50.942;4.026;2023-05-07T04:09:25;17.20;99.90
31133;DHT22;17779;50.942;4.026;2023-05-07T04:11:51;17.20;99.90
31133;DHT22;17779;50.942;4.026;2023-05-07T04:14:17;17.10;99.90
31133;DHT22;17779;50.942;4.026;2023-05-07T04:16:42;16.90;99.90
31133;DHT22;17779;50.942;4.026;2023-05-07T04:19:08;16.70;99.90
31133;DHT22;17779;50.942;4.026;2023-05-07T04:21:34;16.50;99.90
31133;DHT22;17779;50.942;4.026;2023-05-07T04:24:00;16.50;99.90
31133;DHT22;17779;50.942;4.026;2023-05-07T04:26:25;16.40;99.90
31133;DHT22;17779;50.942;4.026;2023-05-07T04:28:51;16.20;99.90
31133;DHT22;17779;50.942;4.026;2023-05-07T04:31:17;16.20;99.90
31133;DHT22;17779;50.942;4.026;2023-05-07T04:33:44;16.20;99.90
31133;DHT22;17779;50.942;4.026;2023-05-07T04:36:10;16.50;99.90
31133;DHT22;17779;50.942;4.026;2023-05-07T04:38:36;16.70;99.90
31133;DHT22;17779;50.942;4.026;2023-05-07T04:41:06;16.90;99.90
31133;DHT22;17779;50.942;4.026;2023-05-07T04:43:32;17.10;99.90
31133;DHT22;17779;50.942;4.026;2023-05-07T04:45:58;17.30;99.90
31133;DHT22;17779;50.942;4.026;2023-05-07T04:48:24;17.40;99.90
31133;DHT22;17779;50.942;4.026;2023-05-07T04:50:50;17.50;99.90
31133;DHT22;17779;50.942;4.026;2023-05-07T04:53:17;17.50;99.90
31133;DHT22;17779;50.942;4.026;2023-05-07T04:55:43;17.60;99.90
31133;DHT22;17779;50.942;4.026;2023-05-07T04:58:09;17.60;99.90
31133;DHT22;17779;50.942;4.026;2023-05-07T05:00:34;17.60;99.90
31133;DHT22;17779;50.942;4.026;2023-05-07T05:03:01;17.60;99.90
31133;DHT22;17779;50.942;4.026;2023-05-07T05:05:26;17.60;99.90
31133;DHT22;17779;50.942;4.026;2023-05-07T05:07:52;17.70;99.90
31133;DHT22;17779;50.942;4.026;2023-05-07T05:10:18;17.70;99.90
31133;DHT22;17779;50.942;4.026;2023-05-07T05:12:44;17.60;99.90
31133;DHT22;17779;50.942;4.026;2023-05-07T05:15:11;17.60;99.90
31133;DHT22;17779;50.942;4.026;2023-05-07T05:17:38;17.50;99.90
31133;DHT22;17779;50.942;4.026;2023-05-07T05:20:04;17.40;99.90
31133;DHT22;17779;50.942;4.026;2023-05-07T05:22:31;17.60;99.90
31133;DHT22;17779;50.942;4.026;2023-05-07T05:24:57;17.70;99.90
31133;DHT22;17779;50.942;4.026;2023-05-07T05:27:24;17.60;99.90
31133;DHT22;17779;50.942;4.026;2023-05-07T05:29:49;17.30;99.90
31133;DHT22;17779;50.942;4.026;2023-05-07T05:32:15;17.00;99.90
31133;DHT22;17779;50.942;4.026;2023-05-07T05:34:41;17.00;99.90
31133;DHT22;17779;50.942;4.026;2023-05-07T05:37:07;17.10;99.90
31133;DHT22;17779;50.942;4.026;2023-05-07T05:39:33;16.90;99.90
31133;DHT22;17779;50.942;4.026;2023-05-07T05:41:59;17.10;99.90
31133;DHT22;17779;50.942;4.026;2023-05-07T05:44:25;17.00;99.90
31133;DHT22;17779;50.942;4.026;2023-05-07T05:46:51;16.80;99.90
31133;DHT22;17779;50.942;4.026;2023-05-07T05:49:17;16.60;99.90
31133;DHT22;17779;50.942;4.026;2023-05-07T05:51:43;16.60;99.90
31133;DHT22;17779;50.942;4.026;2023-05-07T05:54:09;16.70;99.90
31133;DHT22;17779;50.942;4.026;2023-05-07T05:56:36;16.60;99.90
31133;DHT22;17779;50.942;4.026;2023-05-07T05:59:02;16.80;99.90
31133;DHT22;17779;50.942;4.026;2023-05-07T06:01:28;16.80;99.90
31133;DHT22;17779;50.942;4.026;2023-05-07T06:03:54;16.80;99.90
31133;DHT22;17779;50.942;4.026;2023-05-07T06:06:19;16.80;99.90
31133;DHT22;17779;50.942;4.026;2023-05-07T06:08:45;16.60;99.90
31133;DHT22;17779;50.942;4.026;2023-05-07T06:11:11;16.60;99.90
31133;DHT22;17779;50.942;4.026;2023-05-07T06:13:37;16.50;99.90
31133;DHT22;17779;50.942;4.026;2023-05-07T06:16:04;16.30;99.90
31133;DHT22;17779;50.942;4.026;2023-05-07T06:18:29;16.30;99.90
31133;DHT22;17779;50.942;4.026;2023-05-07T06:20:55;16.20;99.90
31133;DHT22;17779;50.942;4.026;2023-05-07T06:23:21;16.10;99.90
31133;DHT22;17779;50.942;4.026;2023-05-07T06:25:50;16.00;99.90
31133;DHT22;17779;50.942;4.026;2023-05-07T06:28:16;16.30;99.90
31133;DHT22;17779;50.942;4.026;2023-05-07T06:30:42;16.20;99.90
31133;DHT22;17779;50.942;4.026;2023-05-07T06:33:08;16.20;99.90
31133;DHT22;17779;50.942;4.026;2023-05-07T06:35:34;16.20;99.90
31133;DHT22;17779;50.942;4.026;2023-05-07T06:38:00;16.20;99.90
31133;DHT22;17779;50.942;4.026;2023-05-07T06:40:27;16.20;99.90
31133;DHT22;17779;50.942;4.026;2023-05-07T06:42:53;16.20;99.90
31133;DHT22;17779;50.942;4.026;2023-05-07T06:45:22;16.10;99.90
31133;DHT22;17779;50.942;4.026;2023-05-07T06:47:47;16.10;99.90
31133;DHT22;17779;50.942;4.026;2023-05-07T06:50:13;16.10;99.90
31133;DHT22;17779;50.942;4.026;2023-05-07T06:52:41;16.10;99.90
31133;DHT22;17779;50.942;4.026;2023-05-07T06:55:07;16.20;99.90
31133;DHT22;17779;50.942;4.026;2023-05-07T06:57:33;16.30;99.90
31133;DHT22;17779;50.942;4.026;2023-05-07T06:59:59;16.20;99.90
31133;DHT22;17779;50.942;4.026;2023-05-07T07:02:25;16.40;99.90
31133;DHT22;17779;50.942;4.026;2023-05-07T07:04:51;16.70;99.90
31133;DHT22;17779;50.942;4.026;2023-05-07T07:07:17;17.00;99.90
31133;DHT22;17779;50.942;4.026;2023-05-07T07:09:42;17.10;99.90
31133;DHT22;17779;50.942;4.026;2023-05-07T07:12:08;17.10;99.90
31133;DHT22;17779;50.942;4.026;2023-05-07T07:14:34;17.20;99.90
31133;DHT22;17779;50.942;4.026;2023-05-07T07:16:59;17.20;99.90
31133;DHT22;17779;50.942;4.026;2023-05-07T07:19:26;17.10;99.90
31133;DHT22;17779;50.942;4.026;2023-05-07T07:21:51;17.10;99.90
31133;DHT22;17779;50.942;4.026;2023-05-07T07:24:17;17.10;99.90
31133;DHT22;17779;50.942;4.026;2023-05-07T07:26:46;17.20;99.90
31133;DHT22;17779;50.942;4.026;2023-05-07T07:29:12;17.30;99.90
31133;DHT22;17779;50.942;4.026;2023-05-07T07:31:38;17.30;99.90
31133;DHT22;17779;50.942;4.026;2023-05-07T07:34:03;17.60;99.90
31133;DHT22;17779;50.942;4.026;2023-05-07T07:36:29;17.80;99.90
31133;DHT22;17779;50.942;4.026;2023-05-07T07:38:55;17.90;99.90
31133;DHT22;17779;50.942;4.026;2023-05-07T07:41:21;18.10;99.90
31133;DHT22;17779;50.942;4.026;2023-05-07T07:43:46;18.20;99.90
31133;DHT22;17779;50.942;4.026;2023-05-07T07:46:12;18.30;99.90
31133;DHT22;17779;50.942;4.026;2023-05-07T07:48:38;18.30;99.90
31133;DHT22;17779;50.942;4.026;2023-05-07T07:51:04;18.00;99.90
31133;DHT22;17779;50.942;4.026;2023-05-07T07:53:30;18.20;99.90
31133;DHT22;17779;50.942;4.026;2023-05-07T07:55:56;18.40;99.90
31133;DHT22;17779;50.942;4.026;2023-05-07T07:58:21;18.40;99.90
31133;DHT22;17779;50.942;4.026;2023-05-07T08:00:47;18.50;99.90
31133;DHT22;17779;50.942;4.026;2023-05-07T08:03:14;18.60;99.90
31133;DHT22;17779;50.942;4.026;2023-05-07T08:05:42;18.60;99.90
31133;DHT22;17779;50.942;4.026;2023-05-07T08:08:08;18.70;99.90
31133;DHT22;17779;50.942;4.026;2023-05-07T08:10:33;18.80;99.90
31133;DHT22;17779;50.942;4.026;2023-05-07T08:13:00;18.80;99.90
31133;DHT22;17779;50.942;4.026;2023-05-07T08:15:26;18.40;99.90
31133;DHT22;17779;50.942;4.026;2023-05-07T08:17:52;18.40;99.90
31133;DHT22;17779;50.942;4.026;2023-05-07T08:20:18;18.30;99.90
31133;DHT22;17779;50.942;4.026;2023-05-07T08:22:44;18.40;99.90
31133;DHT22;17779;50.942;4.026;2023-05-07T08:25:11;18.00;99.90
31133;DHT22;17779;50.942;4.026;2023-05-07T08:27:38;17.60;99.90
31133;DHT22;17779;50.942;4.026;2023-05-07T08:30:04;17.60;99.90
31133;DHT22;17779;50.942;4.026;2023-05-07T08:32:30;17.70;99.90
31133;DHT22;17779;50.942;4.026;2023-05-07T08:34:55;17.90;99.90
31133;DHT22;17779;50.942;4.026;2023-05-07T08:37:21;18.10;99.90
31133;DHT22;17779;50.942;4.026;2023-05-07T08:39:48;18.40;99.90
31133;DHT22;17779;50.942;4.026;2023-05-07T08:42:16;18.30;99.90
31133;DHT22;17779;50.942;4.026;2023-05-07T08:44:45;18.40;99.90
31133;DHT22;17779;50.942;4.026;2023-05-07T08:47:12;18.30;99.90
31133;DHT22;17779;50.942;4.026;2023-05-07T08:49:39;18.40;99.90
31133;DHT22;17779;50.942;4.026;2023-05-07T08:52:06;18.40;99.90
31133;DHT22;17779;50.942;4.026;2023-05-07T08:54:31;18.30;99.90
31133;DHT22;17779;50.942;4.026;2023-05-07T08:56:57;18.40;99.90
31133;DHT22;17779;50.942;4.026;2023-05-07T08:59:23;18.50;99.90
31133;DHT22;17779;50.942;4.026;2023-05-07T09:01:49;18.60;99.90
31133;DHT22;17779;50.942;4.026;2023-05-07T09:04:16;18.60;99.90
31133;DHT22;17779;50.942;4.026;2023-05-07T09:06:44;18.80;99.90
31133;DHT22;17779;50.942;4.026;2023-05-07T09:09:14;18.70;99.90
31133;DHT22;17779;50.942;4.026;2023-05-07T09:11:42;18.80;99.90
31133;DHT22;17779;50.942;4.026;2023-05-07T09:14:08;18.90;99.90
31133;DHT22;17779;50.942;4.026;2023-05-07T09:16:34;18.60;99.90
31133;DHT22;17779;50.942;4.026;2023-05-07T09:19:00;18.70;99.90
31133;DHT22;17779;50.942;4.026;2023-05-07T09:21:26;18.80;99.90
31133;DHT22;17779;50.942;4.026;2023-05-07T09:23:54;18.00;99.90
31133;DHT22;17779;50.942;4.026;2023-05-07T09:26:24;17.90;99.90
31133;DHT22;17779;50.942;4.026;2023-05-07T09:28:51;18.00;99.90
31133;DHT22;17779;50.942;4.026;2023-05-07T09:31:17;18.20;99.90
31133;DHT22;17779;50.942;4.026;2023-05-07T09:33:43;18.10;99.90
31133;DHT22;17779;50.942;4.026;2023-05-07T09:36:09;18.10;99.90
31133;DHT22;17779;50.942;4.026;2023-05-07T09:38:36;18.20;99.90
31133;DHT22;17779;50.942;4.026;2023-05-07T09:41:10;18.20;99.90
31133;DHT22;17779;50.942;4.026;2023-05-07T09:43:37;18.30;99.90
31133;DHT22;17779;50.942;4.026;2023-05-07T09:46:13;18.20;99.90
31133;DHT22;17779;50.942;4.026;2023-05-07T09:48:44;18.30;99.90
31133;DHT22;17779;50.942;4.026;2023-05-07T09:53:45;18.40;99.90
31133;DHT22;17779;50.942;4.026;2023-05-07T09:56:14;18.60;99.90
31133;DHT22;17779;50.942;4.026;2023-05-07T09:58:41;18.50;99.90
31133;DHT22;17779;50.942;4.026;2023-05-07T10:01:07;18.40;99.90
31133;DHT22;17779;50.942;4.026;2023-05-07T10:03:35;18.50;99.90
31133;DHT22;17779;50.942;4.026;2023-05-07T10:06:01;18.70;99.90
31133;DHT22;17779;50.942;4.026;2023-05-07T10:08:30;18.80;99.90
31133;DHT22;17779;50.942;4.026;2023-05-07T10:10:56;18.70;99.90
31133;DHT22;17779;50.942;4.026;2023-05-07T10:13:22;18.40;99.90
31133;DHT22;17779;50.942;4.026;2023-05-07T10:15:48;18.20;99.90
31133;DHT22;17779;50.942;4.026;2023-05-07T10:18:16;18.40;99.90
31133;DHT22;17779;50.942;4.026;2023-05-07T10:20:43;18.10;99.90
31133;DHT22;17779;50.942;4.026;2023-05-07T10:23:13;18.10;99.90
31133;DHT22;17779;50.942;4.026;2023-05-07T10:25:40;18.00;99.90
31133;DHT22;17779;50.942;4.026;2023-05-07T10:28:10;18.00;99.90
31133;DHT22;17779;50.942;4.026;2023-05-07T10:33:16;18.50;99.90
31133;DHT22;17779;50.942;4.026;2023-05-07T10:35:55;18.40;99.90
31133;DHT22;17779;50.942;4.026;2023-05-07T10:38:21;18.00;99.90
31133;DHT22;17779;50.942;4.026;2023-05-07T10:40:47;18.20;99.90
31133;DHT22;17779;50.942;4.026;2023-05-07T10:43:17;18.70;99.90
31133;DHT22;17779;50.942;4.026;2023-05-07T10:45:42;18.70;99.90
31133;DHT22;17779;50.942;4.026;2023-05-07T10:48:15;18.50;99.90
31133;DHT22;17779;50.942;4.026;2023-05-07T10:50:43;18.40;99.90
31133;DHT22;17779;50.942;4.026;2023-05-07T10:55:48;18.90;99.90
31133;DHT22;17779;50.942;4.026;2023-05-07T10:58:26;19.30;99.90
31133;DHT22;17779;50.942;4.026;2023-05-07T11:01:01;19.20;99.90
31133;DHT22;17779;50.942;4.026;2023-05-07T11:03:29;19.20;99.90
31133;DHT22;17779;50.942;4.026;2023-05-07T11:06:10;19.40;99.90
31133;DHT22;17779;50.942;4.026;2023-05-07T11:08:57;20.00;99.90
31133;DHT22;17779;50.942;4.026;2023-05-07T11:11:49;20.40;99.90
31133;DHT22;17779;50.942;4.026;2023-05-07T11:14:51;19.50;99.90
31133;DHT22;17779;50.942;4.026;2023-05-07T11:17:19;19.30;99.90
31133;DHT22;17779;50.942;4.026;2023-05-07T11:19:55;19.40;99.90
31133;DHT22;17779;50.942;4.026;2023-05-07T11:22:40;19.30;99.90
31133;DHT22;17779;50.942;4.026;2023-05-07T11:25:08;19.60;99.90
31133;DHT22;17779;50.942;4.026;2023-05-07T11:27:36;19.60;99.90
31133;DHT22;17779;50.942;4.026;2023-05-07T11:30:03;19.40;99.90
31133;DHT22;17779;50.942;4.026;2023-05-07T11:32:30;19.30;99.90
31133;DHT22;17779;50.942;4.026;2023-05-07T11:34:59;19.50;99.90
31133;DHT22;17779;50.942;4.026;2023-05-07T11:37:27;19.30;99.90
31133;DHT22;17779;50.942;4.026;2023-05-07T11:40:08;19.90;99.90
31133;DHT22;17779;50.942;4.026;2023-05-07T11:42:37;19.50;99.90
31133;DHT22;17779;50.942;4.026;2023-05-07T11:45:04;19.80;99.90
31133;DHT22;17779;50.942;4.026;2023-05-07T11:47:31;19.50;99.90
31133;DHT22;17779;50.942;4.026;2023-05-07T11:49:57;19.40;99.90
31133;DHT22;17779;50.942;4.026;2023-05-07T11:52:27;19.10;99.90
31133;DHT22;17779;50.942;4.026;2023-05-07T11:54:55;19.00;99.90
31133;DHT22;17779;50.942;4.026;2023-05-07T11:57:22;19.10;99.90
31133;DHT22;17779;50.942;4.026;2023-05-07T11:59:53;19.50;99.90
31133;DHT22;17779;50.942;4.026;2023-05-07T12:02:19;19.60;99.90
31133;DHT22;17779;50.942;4.026;2023-05-07T12:04:47;20.00;99.90
31133;DHT22;17779;50.942;4.026;2023-05-07T12:07:14;20.40;99.90
31133;DHT22;17779;50.942;4.026;2023-05-07T12:09:43;20.20;99.90
31133;DHT22;17779;50.942;4.026;2023-05-07T12:12:13;20.10;99.90
31133;DHT22;17779;50.942;4.026;2023-05-07T12:14:44;20.20;99.90
31133;DHT22;17779;50.942;4.026;2023-05-07T12:17:14;19.70;99.90
31133;DHT22;17779;50.942;4.026;2023-05-07T12:19:42;19.90;99.90
31133;DHT22;17779;50.942;4.026;2023-05-07T12:22:09;19.50;99.90
31133;DHT22;17779;50.942;4.026;2023-05-07T12:24:47;19.20;99.90
31133;DHT22;17779;50.942;4.026;2023-05-07T12:27:14;19.10;99.90
31133;DHT22;17779;50.942;4.026;2023-05-07T12:29:47;19.10;99.90
31133;DHT22;17779;50.942;4.026;2023-05-07T12:32:14;19.10;99.90
31133;DHT22;17779;50.942;4.026;2023-05-07T12:34:40;18.90;99.90
31133;DHT22;17779;50.942;4.026;2023-05-07T12:37:06;18.70;99.90
31133;DHT22;17779;50.942;4.026;2023-05-07T12:39:32;18.60;99.90
31133;DHT22;17779;50.942;4.026;2023-05-07T12:41:59;18.60;99.90
31133;DHT22;17779;50.942;4.026;2023-05-07T12:44:29;19.00;99.90
31133;DHT22;17779;50.942;4.026;2023-05-07T12:46:56;19.20;99.90
31133;DHT22;17779;50.942;4.026;2023-05-07T12:49:23;19.40;99.90
31133;DHT22;17779;50.942;4.026;2023-05-07T12:51:50;19.50;99.90
31133;DHT22;17779;50.942;4.026;2023-05-07T12:54:31;19.60;99.90
31133;DHT22;17779;50.942;4.026;2023-05-07T12:57:03;19.50;99.90
31133;DHT22;17779;50.942;4.026;2023-05-07T12:59:41;19.60;99.90
31133;DHT22;17779;50.942;4.026;2023-05-07T13:02:08;19.40;99.90
31133;DHT22;17779;50.942;4.026;2023-05-07T13:04:35;19.70;99.90
31133;DHT22;17779;50.942;4.026;2023-05-07T13:07:01;19.60;99.90
31133;DHT22;17779;50.942;4.026;2023-05-07T13:09:28;19.60;99.90
31133;DHT22;17779;50.942;4.026;2023-05-07T13:11:57;19.90;99.90
31133;DHT22;17779;50.942;4.026;2023-05-07T13:14:27;20.50;99.90
31133;DHT22;17779;50.942;4.026;2023-05-07T13:16:55;20.90;99.90
31133;DHT22;17779;50.942;4.026;2023-05-07T13:19:21;20.60;99.90
31133;DHT22;17779;50.942;4.026;2023-05-07T13:21:47;20.40;99.90
31133;DHT22;17779;50.942;4.026;2023-05-07T13:24:15;20.50;99.90
31133;DHT22;17779;50.942;4.026;2023-05-07T13:26:40;20.70;99.90
31133;DHT22;17779;50.942;4.026;2023-05-07T13:29:07;20.70;99.90
31133;DHT22;17779;50.942;4.026;2023-05-07T13:31:33;21.10;99.90
31133;DHT22;17779;50.942;4.026;2023-05-07T13:34:00;21.70;99.90
31133;DHT22;17779;50.942;4.026;2023-05-07T13:36:29;22.00;99.90
31133;DHT22;17779;50.942;4.026;2023-05-07T13:38:58;21.70;99.90
31133;DHT22;17779;50.942;4.026;2023-05-07T13:41:25;21.50;99.90
31133;DHT22;17779;50.942;4.026;2023-05-07T13:43:52;21.50;99.90
31133;DHT22;17779;50.942;4.026;2023-05-07T13:46:18;21.00;99.90
31133;DHT22;17779;50.942;4.026;2023-05-07T13:48:44;21.30;99.90
31133;DHT22;17779;50.942;4.026;2023-05-07T13:51:10;21.50;99.90
31133;DHT22;17779;50.942;4.026;2023-05-07T13:53:36;21.60;99.90
31133;DHT22;17779;50.942;4.026;2023-05-07T13:56:02;21.50;99.90
31133;DHT22;17779;50.942;4.026;2023-05-07T13:58:30;21.60;99.90
31133;DHT22;17779;50.942;4.026;2023-05-07T14:00:56;21.70;99.90
31133;DHT22;17779;50.942;4.026;2023-05-07T14:03:21;21.90;99.90
31133;DHT22;17779;50.942;4.026;2023-05-07T14:05:47;22.00;99.90
31133;DHT22;17779;50.942;4.026;2023-05-07T14:08:13;22.10;99.90
31133;DHT22;17779;50.942;4.026;2023-05-07T14:10:40;22.00;99.90
31133;DHT22;17779;50.942;4.026;2023-05-07T14:13:06;22.20;99.90
31133;DHT22;17779;50.942;4.026;2023-05-07T14:15:31;22.30;99.90
31133;DHT22;17779;50.942;4.026;2023-05-07T14:17:59;22.40;99.90
31133;DHT22;17779;50.942;4.026;2023-05-07T14:20:25;22.30;99.90
31133;DHT22;17779;50.942;4.026;2023-05-07T14:22:51;22.20;99.90
31133;DHT22;17779;50.942;4.026;2023-05-07T14:25:24;21.90;99.90
31133;DHT22;17779;50.942;4.026;2023-05-07T14:27:51;21.20;99.90
31133;DHT22;17779;50.942;4.026;2023-05-07T14:30:18;21.00;99.90
31133;DHT22;17779;50.942;4.026;2023-05-07T14:32:43;20.70;99.90
31133;DHT22;17779;50.942;4.026;2023-05-07T14:35:09;21.10;99.90
31133;DHT22;17779;50.942;4.026;2023-05-07T14:37:36;21.00;99.90
31133;DHT22;17779;50.942;4.026;2023-05-07T14:40:03;20.70;99.90
31133;DHT22;17779;50.942;4.026;2023-05-07T14:42:30;20.60;99.90
31133;DHT22;17779;50.942;4.026;2023-05-07T14:44:55;20.40;99.90
31133;DHT22;17779;50.942;4.026;2023-05-07T14:47:21;20.70;99.90
31133;DHT22;17779;50.942;4.026;2023-05-07T14:49:47;21.00;99.90
31133;DHT22;17779;50.942;4.026;2023-05-07T14:52:14;21.00;99.90
31133;DHT22;17779;50.942;4.026;2023-05-07T14:54:40;21.40;99.90
31133;DHT22;17779;50.942;4.026;2023-05-07T14:57:09;21.10;99.90
31133;DHT22;17779;50.942;4.026;2023-05-07T14:59:35;21.60;99.90
31133;DHT22;17779;50.942;4.026;2023-05-07T15:02:03;21.40;99.90
31133;DHT22;17779;50.942;4.026;2023-05-07T15:04:31;21.60;99.90
31133;DHT22;17779;50.942;4.026;2023-05-07T15:06:57;21.90;99.90
31133;DHT22;17779;50.942;4.026;2023-05-07T15:09:22;22.00;99.90
31133;DHT22;17779;50.942;4.026;2023-05-07T15:11:48;21.90;99.90
31133;DHT22;17779;50.942;4.026;2023-05-07T15:14:14;22.30;99.90
31133;DHT22;17779;50.942;4.026;2023-05-07T15:16:40;22.40;99.90
31133;DHT22;17779;50.942;4.026;2023-05-07T15:19:06;22.20;99.90
31133;DHT22;17779;50.942;4.026;2023-05-07T15:21:31;22.20;99.90
31133;DHT22;17779;50.942;4.026;2023-05-07T15:24:05;21.70;99.90
31133;DHT22;17779;50.942;4.026;2023-05-07T15:26:32;21.90;99.90
31133;DHT22;17779;50.942;4.026;2023-05-07T15:28:57;21.40;99.90
31133;DHT22;17779;50.942;4.026;2023-05-07T15:31:24;21.00;99.90
31133;DHT22;17779;50.942;4.026;2023-05-07T15:33:50;20.60;99.90
31133;DHT22;17779;50.942;4.026;2023-05-07T15:36:20;21.00;99.90